Search for airport 
image banner adimage banner ad
image banner ad

LEAL - Alicante-Elche

Located in Alicante, Spain

ICAO - LEAL, IATA - ALC

Data provided by Airmate  

General information

Coordinates: N38°16'56" W0°33'29"
Elevation is 141 feet MSL.
Magnetic variation is 0° East
Rated:
View ratings: [VIEW]


View others Airports in Valencia

Operational data

Open for public use
Current time UTC:
Current local time:
Weather
METAR: LEAL 062100Z 02003KT 350V050 CAVOK 22/18 Q1005 NOSIG
TAF: TAF LEAL 061700Z 0618/0718 18008KT 9999 FEW040 TX30/0712Z TN19/0705Z BECMG 0618/0620 VRB04KT BECMG 0622/0624 28010KT TEMPO 0702/0710 30016G28KT BECMG 0710/0712 10012KT PROB30 TEMPO 0712/0716 4000 TSRA FEW030CB
View NOTAMs / SUP AIP / TFR affecting this airport [VIEW]
Communications frequencies: [VIEW]

Runways:

RWY identifierQFULength (ft)Width (ft)SurfaceLDA (ft)
10100°9843148ASPH9843
28280°9843148ASPH9843

Airport contact information

Address: Alicante Spain

Aga Airlines Ground Assistance

Aga Airlines Ground Assistance

Gerardo Melendez Sl

Gerardo Melendez Sl
[VIEW][VIEW]
+34646307619

Iberia Airport Services

Iberia Airport Services

Menzies Aviation Iberica

Menzies Aviation Iberica

Swissport Handling S.A.

Swissport Handling S.A.

Other aviation service providers

Flight schools

Sim Crew Training

Sim Crew Training

Aviation club (not for profit)

Aeroclub De Alicante

Aeroclub De Alicante

Satellite view of LEAL